Погода Бездедовичи 2на неделю

Витебская область, Белоруссия

21 - 27 мая
  • 21мая
    Сегодня
    +12°
    +25°
    Небольшая облачность
    ВремяПогодаТемператураВлажностьДавлениеВетер, м/сВероятность осадков
    00:00Ясно и безоблачно+13°C90 %751 мм0.6 м/с2 %
    03:00Ясно и безоблачно+11°C96 %751 мм0.6 м/с2 %
    06:00Ясно и безоблачно+12°C96 %752 мм0.6 м/с2 %
    09:00Ясно и безоблачно+20°C72 %752 мм1.1 м/с2 %
    12:00Ясно и безоблачно+24°C52 %753 мм1.6 м/с1 %
    15:00Небольшая облачность+24°C48 %752 мм1.6 м/с8 %
    18:00Облачно с прояснениями+22°C70 %753 мм2.2 м/с43 %
    21:00Небольшая облачность+18°C80 %752 мм1.6 м/с9 %
  • 22мая
    Среда
    +12°
    +25°
    Пасмурно, сплошная облачность
    ВремяПогодаТемператураВлажностьДавлениеВетер, м/сВероятность осадков
    00:00Ясно и безоблачно+14°C86 %753 мм1.4 м/с1 %
    03:00Практически безоблачно+13°C86 %753 мм1.3 м/с2 %
    06:00Ясно и безоблачно+13°C76 %753 мм1.6 м/с1 %
    09:00Ясно и безоблачно+18°C70 %754 мм2.1 м/с1 %
    12:00Ясно и безоблачно+23°C61 %753 мм2.3 м/с7 %
    15:00Пасмурно, сплошная облачность+24°C50 %753 мм2.3 м/с38 %
    18:00Небольшая облачность, ливень+24°C65 %753 мм2.6 м/с58 %
    21:00Практически безоблачно+19°C77 %754 мм1.4 м/с17 %
  • 23мая
    Четверг
    +12°
    +24°
    Ясно и безоблачно
    ВремяПогодаТемператураВлажностьДавлениеВетер, м/сВероятность осадков
    00:00Ясно и безоблачно+15°C88 %754 мм1.4 м/с1 %
    03:00Ясно и безоблачно+13°C92 %755 мм1.4 м/с2 %
    06:00Ясно и безоблачно+13°C79 %755 мм1.7 м/с2 %
    09:00Ясно и безоблачно+19°C61 %756 мм2.7 м/с2 %
    12:00Ясно и безоблачно+23°C43 %757 мм3.3 м/с11 %
    15:00Ясно и безоблачно+24°C41 %757 мм3.0 м/с16 %
    18:00Ясно и безоблачно+24°C43 %756 мм3.3 м/с14 %
    21:00Ясно и безоблачно+19°C54 %757 мм2.1 м/с5 %
  • 24мая
    Пятница
    +11°
    +25°
    Ясно и безоблачно
    ВремяПогодаТемператураВлажностьДавлениеВетер, м/сВероятность осадков
    00:00Ясно и безоблачно+15°C61 %757 мм1.8 м/с2 %
    03:00Ясно и безоблачно+14°C68 %758 мм1.8 м/с2 %
    06:00Ясно и безоблачно+13°C70 %759 мм1.9 м/с2 %
    09:00Ясно и безоблачно+18°C59 %759 мм2.4 м/с2 %
    12:00Ясно и безоблачно+23°C48 %760 мм2.7 м/с2 %
    15:00Ясно и безоблачно+24°C46 %759 мм2.6 м/с6 %
    18:00Небольшая облачность+25°C47 %759 мм2.8 м/с14 %
    21:00Ясно и безоблачно+19°C59 %759 мм1.6 м/с4 %
  • 25мая
    Суббота
    +11°
    +26°
    Небольшая облачность
    ВремяПогодаТемператураВлажностьДавлениеВетер, м/сВероятность осадков
    00:00Ясно и безоблачно+15°C63 %759 мм1.4 м/с2 %
    03:00Ясно и безоблачно+13°C69 %759 мм1.1 м/с2 %
    06:00Ясно и безоблачно+13°C75 %759 мм1.4 м/с2 %
    09:00Ясно и безоблачно+19°C63 %759 мм1.9 м/с2 %
    12:00Небольшая облачность+24°C48 %759 мм2.4 м/с6 %
    15:00Небольшая облачность+25°C44 %758 мм2.0 м/с13 %
    18:00Практически безоблачно+25°C44 %757 мм2.0 м/с25 %
    21:00Ясно и безоблачно+20°C59 %757 мм1.2 м/с12 %
Мы используем cookies
Соглашаюсь